Khabarovsk, Russia
Current Conditions -  °F | °C
As of 1:30 PM on Tuesday 23 Dec 2014 (Local Time) from UHHH Reporting Station
Clear Clear  
Wind Chill: -20°   Ceiling: Unl
Heat Index: -2°   Visibility: 6mi
Dew Point: -17°   Wind: 11mph
Humidity: 50%   Direction: 240°WSW
Pressure: 29.94"   Gusts: NA
Location:  48.42°N, 135.12°E
Report Text: UHHH 230330Z 24005MPS CAVOK M19/M27 Q1014 NOSIG RMK QFE754/100523090060
Loading
Personal Weather Stations






























Interactive Weather Map New forecast layout! Learn more

10-Day Weather Forecast

Advertisements
Track Severe Weather on mobile